Time;durP1;ratioP1;P1;durP2;ratioP2;P2;SDS_P1;SDS_P2;PMS_P1;PMS_P2;Temp;Humidity;BMP_temperature;BMP_pressure;BME280_temperature;BME280_humidity;BME280_pressure;Samples;Min_cycle;Max_cycle;Signal;HPM_P1;HPM_P2
2021/01/31 00:01:03;;;;;;;28.02;13.85;;;;;;;0.61;73.45;98742.59;4976483;28;20062;-79
2021/01/31 00:03:30;;;;;;;28.48;14.50;;;;;;;0.63;73.26;98729.59;4976070;28;20054;-79
2021/01/31 00:06:00;;;;;;;29.88;15.18;;;;;;;0.63;72.66;98732.19;4976154;28;20121;-79
2021/01/31 00:08:27;;;;;;;28.85;15.30;;;;;;;0.63;72.68;98733.03;4976119;28;20061;-79
2021/01/31 00:10:54;;;;;;;26.83;14.60;;;;;;;0.62;72.52;98733.06;4976321;28;20057;-79
2021/01/31 00:13:22;;;;;;;25.70;13.40;;;;;;;0.60;72.27;98732.28;4974789;28;20047;-79
2021/01/31 00:15:50;;;;;;;30.33;14.27;;;;;;;0.57;72.29;98725.47;4975961;28;20062;-79
2021/01/31 00:18:21;;;;;;;29.45;14.52;;;;;;;0.55;72.36;98737.63;4976049;28;20054;-79
2021/01/31 00:20:49;;;;;;;32.45;15.20;;;;;;;0.52;72.62;98738.56;4976115;28;20051;-79
2021/01/31 00:23:16;;;;;;;31.02;15.82;;;;;;;0.51;72.90;98734.28;4975561;28;20385;-79
2021/01/31 00:25:42;;;;;;;35.03;16.95;;;;;;;0.50;73.01;98734.34;4975880;28;20428;-79
2021/01/31 00:28:10;;;;;;;34.30;16.70;;;;;;;0.48;72.90;98729.19;4975991;28;20059;-79
2021/01/31 00:30:40;;;;;;;34.42;16.25;;;;;;;0.47;72.59;98731.84;4975772;28;20467;-79
2021/01/31 00:33:09;;;;;;;37.63;17.23;;;;;;;0.45;72.44;98736.22;4975550;28;20055;-79
2021/01/31 00:35:37;;;;;;;34.85;17.58;;;;;;;0.44;72.57;98745.72;4975515;28;20102;-79
2021/01/31 00:38:15;;;;;;;32.50;16.25;;;;;;;0.40;72.10;98741.53;4975748;28;20129;-79
2021/01/31 00:40:41;;;;;;;34.50;16.70;;;;;;;0.41;72.92;98732.88;4973715;28;20484;-79
2021/01/31 00:43:08;;;;;;;33.28;17.17;;;;;;;0.40;73.12;98736.34;4975415;28;20051;-79
2021/01/31 00:45:35;;;;;;;32.42;16.63;;;;;;;0.41;72.91;98737.22;4975579;28;20050;-79
2021/01/31 00:48:01;;;;;;;33.65;17.60;;;;;;;0.39;72.89;98739.84;4975618;28;20058;-79
2021/01/31 00:50:33;;;;;;;33.15;16.45;;;;;;;0.36;72.69;98742.53;4975394;28;20075;-79
2021/01/31 00:52:59;;;;;;;33.90;16.67;;;;;;;0.36;72.54;98745.97;4975157;28;20464;-79
2021/01/31 00:55:26;;;;;;;32.92;17.27;;;;;;;0.34;72.77;98742.56;4975431;28;20047;-79
2021/01/31 00:57:53;;;;;;;33.05;16.42;;;;;;;0.32;72.52;98744.38;4975336;28;20051;-79
2021/01/31 01:00:29;;;;;;;35.35;16.00;;;;;;;0.28;72.40;98742.78;4973895;28;20054;-79
2021/01/31 01:02:56;;;;;;;25.73;13.88;;;;;;;0.29;72.47;98741.03;4975165;28;20055;-79
2021/01/31 01:05:26;;;;;;;30.95;16.60;;;;;;;0.27;71.94;98746.28;4975219;28;20050;-79
2021/01/31 01:07:53;;;;;;;28.60;14.25;;;;;;;0.24;72.23;98742.03;4975006;28;20491;-79
2021/01/31 01:10:23;;;;;;;32.17;15.55;;;;;;;0.19;72.01;98743.91;4975123;28;20440;-79
2021/01/31 01:12:51;;;;;;;29.55;14.05;;;;;;;0.16;71.76;98751.78;4975028;28;20051;-79
2021/01/31 01:15:18;;;;;;;30.88;15.57;;;;;;;0.11;72.09;98749.31;4975169;28;20050;-79
2021/01/31 01:17:45;;;;;;;28.25;14.85;;;;;;;0.07;72.20;98749.47;4975024;28;20050;-79
2021/01/31 01:20:12;;;;;;;30.48;15.20;;;;;;;0.03;72.02;98748.69;4973622;28;20054;-79
2021/01/31 01:22:38;;;;;;;29.75;14.63;;;;;;;0.00;71.99;98751.41;4974812;28;20106;-79
2021/01/31 01:25:06;;;;;;;25.95;13.73;;;;;;;-0.03;72.32;98757.47;4974926;28;20101;-79
2021/01/31 01:27:32;;;;;;;30.23;14.73;;;;;;;-0.05;71.79;98763.59;4974968;28;20051;-79
2021/01/31 01:29:59;;;;;;;27.15;13.68;;;;;;;-0.09;71.63;98762.84;4974889;28;20128;-79
2021/01/31 01:32:25;;;;;;;29.50;14.82;;;;;;;-0.11;71.99;98766.38;4974725;28;20078;-79
2021/01/31 01:34:52;;;;;;;29.65;15.68;;;;;;;-0.15;71.81;98763.03;4974885;28;20055;-79
2021/01/31 01:37:18;;;;;;;29.85;14.80;;;;;;;-0.18;72.10;98763.13;4974929;28;20046;-79
2021/01/31 01:39:45;;;;;;;28.63;15.05;;;;;;;-0.21;72.19;98760.63;4974636;28;20059;-79
2021/01/31 01:42:12;;;;;;;27.88;13.95;;;;;;;-0.24;72.17;98760.69;4974635;28;20054;-79
2021/01/31 01:44:39;;;;;;;29.95;15.73;;;;;;;-0.25;72.52;98765.03;4974761;28;20051;-79
2021/01/31 01:47:10;;;;;;;29.27;15.10;;;;;;;-0.27;72.04;98761.63;4974696;28;20051;-79
2021/01/31 01:49:40;;;;;;;28.33;14.25;;;;;;;-0.29;71.99;98760.84;4974596;28;20059;-79
2021/01/31 01:52:34;;;;;;;32.75;13.93;;;;;;;-0.33;71.59;98767.00;4975794;28;20499;-79
2021/01/31 01:55:16;;;;;;;28.73;13.57;;;;;;;-0.34;71.65;98760.13;4978763;28;20051;-79
2021/01/31 01:57:51;;;;;;;27.50;14.15;;;;;;;-0.34;71.81;98757.56;4978724;28;20078;-79
2021/01/31 02:00:18;;;;;;;30.88;14.25;;;;;;;-0.35;72.27;98753.25;4978681;28;20055;-79
2021/01/31 02:02:56;;;;;;;30.25;14.80;;;;;;;-0.38;71.67;98754.19;4978460;28;20051;-79
2021/01/31 02:05:23;;;;;;;26.70;14.02;;;;;;;-0.37;71.78;98755.03;4978540;28;20098;-79
2021/01/31 02:07:49;;;;;;;27.75;14.68;;;;;;;-0.40;72.17;98751.63;4978398;28;20054;-79
2021/01/31 02:10:19;;;;;;;29.65;14.70;;;;;;;-0.42;72.16;98753.44;4978435;28;20051;-79
2021/01/31 02:12:45;;;;;;;32.92;15.23;;;;;;;-0.41;73.28;98754.28;4978304;28;20117;-79
2021/01/31 02:15:15;;;;;;;27.90;14.93;;;;;;;-0.41;73.91;98757.72;4978108;28;20047;-79
2021/01/31 02:17:51;;;;;;;31.17;15.10;;;;;;;-0.38;74.29;98759.34;4978186;28;20504;-79
2021/01/31 02:20:35;;;;;;;29.50;14.55;;;;;;;-0.35;74.35;98759.28;4978069;28;20051;-79
2021/01/31 02:23:30;;;;;;;29.17;14.95;;;;;;;-0.35;73.36;98759.28;4977969;28;20058;-79
2021/01/31 02:25:56;;;;;;;29.60;14.55;;;;;;;-0.31;73.93;98758.31;4978342;28;20047;-79
2021/01/31 02:28:48;;;;;;;32.00;15.10;;;;;;;-0.32;73.32;98753.16;4976919;28;20082;-79
2021/01/31 02:31:20;;;;;;;25.90;11.60;;;;;;;-0.30;72.94;98764.34;4978027;28;20105;-79
2021/01/31 02:33:49;;;;;;;29.33;14.90;;;;;;;-0.31;72.91;98757.44;4976461;28;20455;-79
2021/01/31 02:36:34;;;;;;;28.60;14.52;;;;;;;-0.35;72.29;98753.25;4978033;28;20054;-79
2021/01/31 02:39:03;;;;;;;27.05;13.50;;;;;;;-0.37;72.62;98755.03;4977936;28;20118;-79
2021/01/31 02:41:42;;;;;;;27.88;14.18;;;;;;;-0.42;72.28;98752.56;4977877;28;20106;-79
2021/01/31 02:44:11;;;;;;;28.20;15.15;;;;;;;-0.43;72.62;98745.72;4977722;28;20043;-79
2021/01/31 02:46:45;;;;;;;28.27;14.13;;;;;;;-0.46;71.95;98738.03;4977803;28;20051;-79
2021/01/31 02:49:32;;;;;;;25.70;12.80;;;;;;;-0.53;71.98;98745.97;4977656;28;20055;-79
2021/01/31 02:52:04;;;;;;;27.40;13.85;;;;;;;-0.55;72.05;98741.75;4977640;28;20062;-79
2021/01/31 02:54:43;;;;;;;17.77;9.20;;;;;;;-0.60;71.97;98741.03;4977691;28;20057;-79
2021/01/31 02:57:15;;;;;;;25.65;12.27;;;;;;;-0.63;72.17;98738.53;4977740;28;20133;-79
2021/01/31 02:59:55;;;;;;;24.90;12.30;;;;;;;-0.68;71.83;98739.50;4977597;28;20470;-79
2021/01/31 03:02:31;;;;;;;23.50;12.52;;;;;;;-0.72;71.69;98739.59;4976258;28;20046;-79
2021/01/31 03:05:03;;;;;;;24.05;12.77;;;;;;;-0.74;71.84;98743.97;4976549;28;20488;-79
2021/01/31 03:07:40;;;;;;;22.60;11.73;;;;;;;-0.77;71.56;98736.31;4977563;28;20050;-79
2021/01/31 03:10:08;;;;;;;24.73;12.18;;;;;;;-0.79;72.25;98747.53;4977468;28;20336;-79
2021/01/31 03:12:39;;;;;;;23.35;12.35;;;;;;;-0.82;71.63;98744.19;4977293;28;20050;-79
2021/01/31 03:15:09;;;;;;;24.67;13.23;;;;;;;-0.83;71.98;98745.06;4976139;28;20060;-79
2021/01/31 03:18:00;;;;;;;24.30;12.55;;;;;;;-0.88;71.84;98737.44;4977530;28;20057;-79
2021/01/31 03:20:37;;;;;;;22.48;11.38;;;;;;;-0.89;72.09;98732.31;5038938;23;20050;-79
2021/01/31 03:23:08;;;;;;;21.45;11.18;;;;;;;-0.88;72.16;98734.00;5006971;28;20054;-79
2021/01/31 03:25:46;;;;;;;21.33;10.75;;;;;;;-0.91;72.24;98729.78;5006759;28;20054;-79
2021/01/31 03:28:12;;;;;;;25.25;12.18;;;;;;;-0.92;72.37;98731.53;5005508;28;20050;-80
2021/01/31 03:30:39;;;;;;;22.42;11.88;;;;;;;-0.91;72.48;98727.19;5005655;28;20121;-80
2021/01/31 03:33:13;;;;;;;25.00;12.65;;;;;;;-0.94;72.31;98735.88;4989288;28;20050;-79
2021/01/31 03:35:44;;;;;;;22.83;11.25;;;;;;;-0.93;72.57;98732.38;5006532;28;20062;-80
2021/01/31 03:38:19;;;;;;;21.45;11.38;;;;;;;-0.95;72.07;98731.59;5006555;28;20061;-80
2021/01/31 03:40:50;;;;;;;24.58;12.23;;;;;;;-0.93;72.16;98734.16;5006298;28;20085;-80
2021/01/31 03:43:17;;;;;;;23.75;11.63;;;;;;;-0.94;72.60;98727.25;5006088;28;20046;-81
2021/01/31 03:46:14;;;;;;;22.42;11.43;;;;;;;-0.98;71.88;98726.50;5007112;28;20050;-80
2021/01/31 03:48:47;;;;;;;22.00;11.55;;;;;;;-0.98;71.86;98731.69;5007245;28;20046;-80
2021/01/31 03:51:14;;;;;;;22.05;11.27;;;;;;;-0.96;72.30;98745.41;5007184;28;20058;-79
2021/01/31 03:53:40;;;;;;;22.75;11.95;;;;;;;-0.98;72.54;98744.59;5007176;28;20081;-80
2021/01/31 03:56:09;;;;;;;23.27;11.43;;;;;;;-0.98;72.44;98746.31;5006277;28;20050;-80
2021/01/31 03:58:40;;;;;;;25.40;12.68;;;;;;;-0.98;72.26;98749.75;5005659;28;20138;-80
2021/01/31 04:01:06;;;;;;;23.00;11.48;;;;;;;-0.97;72.19;98741.13;4989213;28;20058;-80
2021/01/31 04:03:42;;;;;;;23.20;12.43;;;;;;;-1.00;71.77;98746.38;5005901;28;20054;-80
2021/01/31 04:06:17;;;;;;;22.35;11.23;;;;;;;-1.00;71.76;98743.78;5006094;28;20054;-80
2021/01/31 04:08:47;;;;;;;21.67;11.18;;;;;;;-0.99;71.99;98752.38;4988210;28;20161;-80
2021/01/31 04:11:35;;;;;;;24.60;12.20;;;;;;;-1.02;71.32;98750.72;4988380;28;20051;-80
2021/01/31 04:14:12;;;;;;;23.10;11.45;;;;;;;-1.03;71.49;98756.78;5004847;28;20046;-80
2021/01/31 04:16:43;;;;;;;25.80;11.25;;;;;;;-1.04;71.96;98752.50;5005306;28;20054;-80
2021/01/31 04:19:11;;;;;;;21.33;11.10;;;;;;;-1.04;71.84;98752.50;5005497;28;20054;-81
2021/01/31 04:21:38;;;;;;;26.60;11.38;;;;;;;-1.04;71.54;98755.09;4989151;28;20054;-80
2021/01/31 04:24:05;;;;;;;21.15;10.77;;;;;;;-1.05;71.91;98758.53;5005920;28;20105;-80
2021/01/31 04:26:31;;;;;;;22.75;11.80;;;;;;;-1.07;71.94;98745.69;5005186;28;20050;-80
2021/01/31 04:28:57;;;;;;;20.00;10.50;;;;;;;-1.08;72.09;98748.31;5005770;28;20109;-80
2021/01/31 04:31:26;;;;;;;23.63;11.43;;;;;;;-1.09;71.92;98756.91;5005920;28;20046;-80
2021/01/31 04:33:52;;;;;;;22.13;11.20;;;;;;;-1.08;71.64;98743.97;5005124;28;20053;-80
2021/01/31 04:36:20;;;;;;;23.98;11.25;;;;;;;-1.09;71.94;98746.59;5005474;28;20058;-80
2021/01/31 04:38:46;;;;;;;20.75;10.93;;;;;;;-1.10;72.09;98737.16;4988317;28;20065;-80
2021/01/31 04:41:12;;;;;;;23.30;10.85;;;;;;;-1.11;71.88;98744.06;5005576;28;20058;-80
2021/01/31 04:43:38;;;;;;;24.15;11.25;;;;;;;-1.11;72.03;98748.38;5005151;28;20051;-80
2021/01/31 04:46:09;;;;;;;23.98;11.13;;;;;;;-1.13;72.07;98742.41;5005410;28;20054;-81
2021/01/31 04:48:40;;;;;;;21.35;10.77;;;;;;;-1.13;71.75;98756.16;5005800;28;20050;-80
2021/01/31 04:51:16;;;;;;;25.70;11.93;;;;;;;-1.13;72.00;98756.16;4988023;28;20475;-80
2021/01/31 04:54:12;;;;;;;20.58;10.90;;;;;;;-1.13;71.88;98755.34;5005398;28;20093;-80
2021/01/31 04:56:57;;;;;;;23.80;11.55;;;;;;;-1.15;71.26;98749.34;5005625;28;20050;-80
2021/01/31 04:59:35;;;;;;;22.38;11.25;;;;;;;-1.17;71.33;98754.53;4986938;28;20065;-80
2021/01/31 05:02:21;;;;;;;24.48;11.50;;;;;;;-1.19;70.95;98757.16;5005268;28;20050;-80
2021/01/31 05:04:57;;;;;;;20.73;10.95;;;;;;;-1.21;71.22;98753.78;4988345;28;20050;-80
2021/01/31 05:07:31;;;;;;;22.98;11.30;;;;;;;-1.20;71.38;98757.19;5005502;28;20054;-80
2021/01/31 05:09:57;;;;;;;22.00;10.98;;;;;;;-1.21;71.45;98758.09;5005420;28;20085;-80
2021/01/31 05:12:33;;;;;;;25.10;12.27;;;;;;;-1.25;71.24;98771.97;5005229;28;20077;-80
2021/01/31 05:15:14;;;;;;;23.58;12.30;;;;;;;-1.28;70.84;98775.47;5004976;28;20050;-80
2021/01/31 05:17:45;;;;;;;24.40;11.95;;;;;;;-1.29;71.41;98773.78;5004809;28;20433;-80
2021/01/31 05:20:15;;;;;;;22.38;11.52;;;;;;;-1.29;71.25;98776.34;5005266;28;20058;-80
2021/01/31 05:22:46;;;;;;;23.02;11.43;;;;;;;-1.31;71.34;98775.53;5004853;28;20085;-80
2021/01/31 05:25:17;;;;;;;24.10;12.52;;;;;;;-1.31;71.25;98789.28;4988382;28;20056;-80
2021/01/31 05:27:44;;;;;;;26.15;13.00;;;;;;;-1.30;71.20;98785.00;4987878;28;20057;-81
2021/01/31 05:30:11;;;;;;;22.13;11.98;;;;;;;-1.31;71.49;98783.28;4987787;28;20054;-80
2021/01/31 05:33:01;;;;;;;26.38;13.27;;;;;;;-1.33;70.88;98778.19;4988453;28;20057;-80
2021/01/31 05:35:29;;;;;;;26.00;11.32;;;;;;;-1.32;71.38;98779.88;4988555;28;20053;-80
2021/01/31 05:37:57;;;;;;;26.38;13.48;;;;;;;-1.32;71.26;98776.41;5005375;28;20050;-80
2021/01/31 05:40:32;;;;;;;25.80;13.38;;;;;;;-1.34;71.16;98779.03;4989063;28;20143;-80
2021/01/31 05:42:58;;;;;;;24.27;12.40;;;;;;;-1.33;71.29;98779.91;5005909;28;20061;-80
2021/01/31 05:45:31;;;;;;;27.73;13.20;;;;;;;-1.35;71.44;98769.59;4989773;28;20053;-80
2021/01/31 05:47:58;;;;;;;;;;;;;;;-1.34;70.77;98767.88;5006675;28;20051;-81
2021/01/31 05:50:33;;;;;;;22.42;11.02;;;;;;;-1.35;70.72;98763.63;5006007;28;19922;-81
2021/01/31 05:53:24;;;;;;;28.52;12.35;;;;;;;-1.40;70.43;98758.53;4988717;28;20050;-81
2021/01/31 05:55:50;;;;;;;25.58;12.40;;;;;;;-1.41;71.31;98756.00;4988121;28;20062;-81
2021/01/31 05:58:20;;;;;;;32.05;14.40;;;;;;;-1.45;70.89;98756.06;4988705;28;20050;-80
2021/01/31 06:00:48;;;;;;;30.88;14.60;;;;;;;-1.45;71.35;98770.72;4988529;28;20076;-81
2021/01/31 06:03:21;;;;;;;35.22;14.52;;;;;;;-1.49;70.92;98764.75;4987504;28;20566;-81
2021/01/31 06:05:47;;;;;;;25.23;10.52;;;;;;;-1.50;71.27;98767.41;5004994;28;20050;-81
2021/01/31 06:08:25;;;;;;;38.33;15.93;;;;;;;-1.53;71.24;98767.47;5004881;28;20054;-80
2021/01/31 06:11:05;;;;;;;33.05;13.98;;;;;;;-1.55;71.36;98764.91;5004995;28;20058;-81
2021/01/31 06:13:34;;;;;;;36.60;15.30;;;;;;;-1.53;71.86;98760.56;4987633;28;20055;-81
2021/01/31 06:16:04;;;;;;;37.33;15.13;;;;;;;-1.52;72.24;98764.00;5004449;28;20050;-80
2021/01/31 06:18:42;;;;;;;38.28;15.80;;;;;;;-1.52;72.26;98770.03;4986250;28;20058;-81
2021/01/31 06:21:14;;;;;;;35.97;14.75;;;;;;;-1.50;72.60;98772.56;5004236;28;20050;-81
2021/01/31 06:23:47;;;;;;;34.80;14.75;;;;;;;-1.49;72.06;98758.78;4986244;28;20050;-80
2021/01/31 06:26:38;;;;;;;31.23;14.38;;;;;;;-1.48;71.90;98771.66;5004126;28;20054;-81
2021/01/31 06:29:19;;;;;;;33.20;15.23;;;;;;;-1.45;72.15;98770.72;5004660;28;20073;-81
2021/01/31 06:31:52;;;;;;;35.40;15.35;;;;;;;-1.44;72.35;98767.25;5004348;28;20510;-80
2021/01/31 06:34:18;;;;;;;33.17;14.68;;;;;;;-1.41;72.56;98771.50;5004777;28;20046;-81
2021/01/31 06:37:08;;;;;;;31.27;13.95;;;;;;;-1.42;71.95;98764.63;5004192;28;20069;-80
2021/01/31 06:39:41;;;;;;;34.63;14.52;;;;;;;-1.42;72.03;98765.47;5006447;28;20049;-80
2021/01/31 06:42:13;;;;;;;36.53;15.23;;;;;;;-1.41;71.74;98769.75;4990515;28;20054;-81
2021/01/31 06:45:04;;;;;;;32.92;14.60;;;;;;;-1.43;71.80;98768.09;5007484;28;20051;-82
2021/01/31 06:47:30;;;;;;;31.42;14.10;;;;;;;-1.40;71.96;98768.00;5008457;28;20104;-81
2021/01/31 06:50:12;;;;;;;36.33;16.35;;;;;;;-1.43;71.99;98770.69;5007341;28;20050;-81
2021/01/31 06:52:38;;;;;;;34.67;13.93;;;;;;;-1.42;72.03;98770.63;4990462;28;20062;-81
2021/01/31 06:55:23;;;;;;;41.97;16.83;;;;;;;-1.46;71.53;98774.19;5007305;28;20127;-81
2021/01/31 06:57:55;;;;;;;36.95;14.77;;;;;;;-1.45;71.60;98779.28;5007562;28;20058;-81
2021/01/31 07:00:41;;;;;;;36.63;15.45;;;;;;;-1.50;71.10;98775.97;5007608;28;20105;-81
2021/01/31 07:03:23;;;;;;;33.75;14.82;;;;;;;-1.50;71.41;98777.72;5007373;28;20061;-81
2021/01/31 07:06:06;;;;;;;34.90;15.48;;;;;;;-1.53;71.45;98783.78;5006837;28;20050;-81
2021/01/31 07:09:10;;;;;;;37.22;15.13;;;;;;;-1.55;71.14;98780.41;5005504;28;20050;-81
2021/01/31 07:11:41;;;;;;;39.60;16.35;;;;;;;-1.53;71.22;98775.22;5001248;28;20050;-81
2021/01/31 07:14:41;;;;;;;42.33;16.55;;;;;;;-1.57;71.14;98769.28;5003221;28;20058;-82
2021/01/31 07:17:25;;;;;;;32.95;14.02;;;;;;;-1.58;71.22;98777.88;4986197;28;20050;-81
2021/01/31 07:19:56;;;;;;;39.83;16.27;;;;;;;-1.59;71.60;98774.47;5004103;28;20105;-82
2021/01/31 07:22:33;;;;;;;41.85;17.10;;;;;;;-1.64;71.32;98773.72;5003529;28;20050;-82
2021/01/31 07:25:28;;;;;;;47.75;17.92;;;;;;;-1.68;70.94;98779.00;5000565;28;20046;-82
2021/01/31 07:28:06;;;;;;;38.80;15.35;;;;;;;-1.71;71.03;98780.75;4981121;28;20481;-82
2021/01/31 07:30:39;;;;;;;38.92;16.45;;;;;;;-1.72;71.28;98785.97;4999948;28;20054;-82
2021/01/31 07:33:24;;;;;;;44.45;16.17;;;;;;;-1.77;71.26;98788.63;4982125;28;20127;-82
2021/01/31 07:36:12;;;;;;;41.13;15.88;;;;;;;-1.76;71.43;98779.19;4999094;28;20550;-82
2021/01/31 07:38:47;;;;;;;40.47;15.50;;;;;;;-1.75;71.69;98784.28;4999123;28;20054;-82
2021/01/31 07:41:14;;;;;;;55.08;18.58;;;;;;;-1.71;72.15;98788.47;4999959;28;20435;-82
2021/01/31 07:43:42;;;;;;;46.28;16.95;;;;;;;-1.67;72.65;98780.69;4998301;28;20054;-82
2021/01/31 07:46:12;;;;;;;51.15;15.95;;;;;;;-1.65;72.29;98784.91;4998719;28;20503;-82
2021/01/31 07:48:44;;;;;;;43.70;14.40;;;;;;;-1.63;71.94;98785.75;4998717;28;20050;-83
2021/01/31 07:51:12;;;;;;;33.27;14.67;;;;;;;-1.59;72.53;98791.69;4998283;28;20058;-83
2021/01/31 07:53:41;;;;;;;48.83;13.23;;;;;;;-1.55;72.10;98788.16;4998482;28;20368;-83
2021/01/31 07:56:26;;;;;;;33.92;12.38;;;;;;;-1.55;71.49;98789.88;4998405;28;20046;-82
2021/01/31 07:58:56;;;;;;;44.13;14.20;;;;;;;-1.50;72.51;98781.13;4998110;28;20050;-83
2021/01/31 08:01:40;;;;;;;34.58;13.27;;;;;;;-1.50;71.97;98782.88;4998333;28;20105;-83
2021/01/31 08:04:15;;;;;;;32.92;13.18;;;;;;;-1.49;71.84;98785.41;4998332;28;20046;-82
2021/01/31 08:06:51;;;;;;;31.10;11.85;;;;;;;-1.49;71.92;98782.84;4998515;28;20077;-83
2021/01/31 08:09:23;;;;;;;28.48;11.82;;;;;;;-1.48;71.79;98779.38;4998114;28;20050;-83
2021/01/31 08:11:57;;;;;;;32.00;12.27;;;;;;;-1.46;72.06;98790.50;4998515;28;20054;-83
2021/01/31 08:15:00;;;;;;;30.65;11.63;;;;;;;-1.48;71.47;98787.13;4981231;28;20305;-83
2021/01/31 08:17:41;;;;;;;26.73;11.27;;;;;;;-1.49;71.48;98788.00;4998010;28;20062;-83
2021/01/31 08:20:31;;;;;;;28.08;11.38;;;;;;;-1.50;71.71;98786.31;4998145;28;20054;-83
2021/01/31 08:23:00;;;;;;;26.30;11.07;;;;;;;-1.49;72.28;98788.00;4998176;28;20042;-83
2021/01/31 08:25:30;;;;;;;24.90;10.40;;;;;;;-1.50;71.96;98785.47;4980809;28;20042;-83
2021/01/31 08:28:02;;;;;;;23.40;10.38;;;;;;;-1.52;71.90;98790.66;4981081;28;20054;-83
2021/01/31 08:30:32;;;;;;;13.77;6.78;;;;;;;-1.52;71.83;98785.50;4980591;28;20124;-83
2021/01/31 08:32:57;;;;;;;23.40;10.57;;;;;;;-1.52;71.84;98789.81;4980774;28;20047;-83
2021/01/31 08:35:26;;;;;;;22.50;10.15;;;;;;;-1.55;71.89;98784.72;4998056;28;20057;-83
2021/01/31 08:38:20;;;;;;;21.85;9.77;;;;;;;-1.60;71.34;98779.66;4997979;28;20050;-83
2021/01/31 08:43:27;;;;;;;22.15;10.68;;;;;;;-1.61;71.98;98781.38;4997964;28;20056;-83
2021/01/31 08:46:03;;;;;;;22.10;10.73;;;;;;;-1.63;72.02;98772.84;4998695;28;20043;-82
2021/01/31 08:48:29;;;;;;;19.33;9.10;;;;;;;-1.62;72.18;98774.53;5001729;28;20054;-83
2021/01/31 08:51:32;;;;;;;19.50;9.20;;;;;;;-1.63;72.19;98785.75;4984221;28;20054;-83
2021/01/31 08:54:41;;;;;;;13.82;6.78;;;;;;;-1.61;71.70;98783.97;5000623;28;20046;-83
2021/01/31 08:57:13;;;;;;;21.67;9.25;;;;;;;-1.59;72.06;98778.78;4967554;28;20061;-83
2021/01/31 09:00:22;;;;;;;22.38;10.40;;;;;;;-1.59;72.26;98782.22;4981675;28;20054;-83
2021/01/31 09:02:48;;;;;;;23.17;9.82;;;;;;;-1.55;72.91;98780.41;4981360;28;20114;-83
2021/01/31 09:05:18;;;;;;;26.98;11.07;;;;;;;-1.53;72.97;98782.97;4980611;28;20054;-83
2021/01/31 09:11:53;;;;;;;19.10;9.02;;;;;;;-1.42;73.54;98783.53;4938254;29;20123;-83
2021/01/31 09:15:20;;;;;;;21.50;10.18;;;;;;;-1.38;72.92;98792.06;4922905;29;20580;-83
2021/01/31 09:18:29;;;;;;;17.48;9.60;;;;;;;-1.31;73.05;98788.44;4922957;29;20060;-83
2021/01/31 09:21:31;;;;;;;20.55;10.15;;;;;;;-1.27;73.08;98782.31;5041160;23;20521;-84
2021/01/31 09:25:25;;;;;;;20.80;10.32;;;;;;;-1.19;73.41;98787.31;5012164;28;20465;-84
2021/01/31 09:28:38;;;;;;;21.98;10.50;;;;;;;-1.15;73.14;98793.25;4982969;28;20054;-84
2021/01/31 09:31:05;;;;;;;21.25;10.27;;;;;;;-1.10;73.32;98796.56;4994175;28;20490;-84
2021/01/31 09:33:40;;;;;;;22.25;10.48;;;;;;;-1.09;73.52;98798.25;4994068;28;20058;-84
2021/01/31 09:36:32;;;;;;;20.77;10.52;;;;;;;-1.07;73.13;98796.50;4993186;28;20047;-82
2021/01/31 09:39:03;;;;;;;26.67;11.02;;;;;;;-1.01;73.84;98787.75;4995288;28;20061;-84
2021/01/31 09:41:31;;;;;;;21.73;10.82;;;;;;;-0.98;73.50;98785.91;4993735;28;20058;-84
2021/01/31 09:44:02;;;;;;;22.27;11.70;;;;;;;-0.92;73.99;98792.66;4994360;28;20061;-84
2021/01/31 09:46:29;;;;;;;20.98;11.60;;;;;;;-0.86;74.03;98792.50;4993280;28;20053;-84
2021/01/31 09:49:11;;;;;;;23.67;11.88;;;;;;;-0.82;73.65;98790.72;4993083;28;20050;-84
2021/01/31 09:51:39;;;;;;;20.67;11.30;;;;;;;-0.74;73.93;98788.78;4992936;28;20070;-82
2021/01/31 09:54:16;;;;;;;21.27;11.40;;;;;;;-0.68;73.88;98787.75;4994035;28;20483;-82
2021/01/31 09:56:45;;;;;;;23.27;11.27;;;;;;;-0.59;74.25;98789.25;4993090;28;20069;-82
2021/01/31 09:59:33;;;;;;;25.77;12.93;;;;;;;-0.54;73.73;98780.47;4993205;28;20054;-82
2021/01/31 10:02:12;;;;;;;21.77;10.93;;;;;;;-0.44;74.41;98775.06;4992933;28;20050;-82
2021/01/31 10:04:41;;;;;;;23.35;11.85;;;;;;;-0.36;74.77;98773.09;4994680;28;20097;-82
2021/01/31 10:07:23;;;;;;;23.23;12.65;;;;;;;-0.30;74.10;98772.91;4992977;28;20046;-82
2021/01/31 10:09:52;;;;;;;27.23;13.18;;;;;;;-0.19;74.72;98771.78;4993669;28;20525;-84
2021/01/31 10:12:29;;;;;;;25.45;12.95;;;;;;;-0.15;74.33;98771.63;4992421;28;20074;-84
2021/01/31 10:15:38;;;;;;;26.40;13.07;;;;;;;-0.06;73.91;98767.09;4998007;28;20050;-83
2021/01/31 10:18:10;;;;;;;26.63;11.80;;;;;;;0.04;74.17;98765.09;4997960;28;20057;-84
2021/01/31 10:20:39;;;;;;;26.83;12.77;;;;;;;0.11;74.44;98758.84;4996650;28;20057;-84
2021/01/31 10:23:15;;;;;;;23.40;11.90;;;;;;;0.17;74.18;98757.78;4998051;28;20050;-83
2021/01/31 10:25:58;;;;;;;24.75;13.00;;;;;;;0.24;74.54;98756.72;4997972;28;20047;-84
2021/01/31 10:28:36;;;;;;;22.35;12.35;;;;;;;0.31;74.18;98763.41;4996433;28;20081;-84
2021/01/31 10:31:03;;;;;;;27.63;13.95;;;;;;;0.40;74.88;98753.66;4997622;28;20711;-84
2021/01/31 10:33:42;;;;;;;24.65;13.55;;;;;;;0.47;74.51;98748.22;4996504;28;20054;-83
2021/01/31 10:36:28;;;;;;;25.23;13.30;;;;;;;0.56;74.44;98751.41;4996441;28;20054;-84
2021/01/31 10:39:14;;;;;;;25.98;13.70;;;;;;;0.67;74.50;98738.13;4996304;28;20054;-84
2021/01/31 10:41:42;;;;;;;25.55;13.40;;;;;;;0.79;75.78;98740.31;4986347;28;20407;-84
2021/01/31 10:44:29;;;;;;;26.55;15.05;;;;;;;0.88;74.88;98733.97;4995684;28;20055;-84
2021/01/31 10:47:33;;;;;;;21.98;13.38;;;;;;;1.01;74.82;98731.81;4996013;28;20139;-84
2021/01/31 10:50:19;;;;;;;24.27;13.32;;;;;;;1.15;75.47;98721.81;4985064;28;20050;-83
2021/01/31 10:52:47;;;;;;;29.02;15.43;;;;;;;1.25;75.71;98722.31;4997250;28;20112;-84
2021/01/31 10:55:14;;;;;;;27.90;14.73;;;;;;;1.35;76.09;98712.44;4996005;28;20077;-84
2021/01/31 10:57:40;;;;;;;26.30;14.50;;;;;;;1.45;75.57;98715.56;4997204;28;20109;-84
2021/01/31 11:00:10;;;;;;;27.30;15.18;;;;;;;1.55;75.28;98721.28;4995753;28;20061;-83
2021/01/31 11:02:36;;;;;;;26.25;14.80;;;;;;;1.65;75.64;98716.59;4996967;28;20439;-82
2021/01/31 11:05:05;;;;;;;26.58;14.48;;;;;;;1.75;75.54;98724.88;4995951;28;20046;-82
2021/01/31 11:07:31;;;;;;;23.83;13.85;;;;;;;1.86;75.02;98720.13;4997168;28;20046;-82
2021/01/31 11:09:59;;;;;;;25.33;13.20;;;;;;;1.94;74.68;98715.47;4996003;28;20054;-82
2021/01/31 11:12:25;;;;;;;27.30;14.73;;;;;;;2.03;75.45;98710.84;4996814;28;20050;-83
2021/01/31 11:14:52;;;;;;;25.90;14.52;;;;;;;2.13;75.48;98712.16;4995559;28;20049;-82
2021/01/31 11:17:18;;;;;;;27.25;14.60;;;;;;;2.24;75.80;98706.56;4995441;28;20042;-82
2021/01/31 11:19:44;;;;;;;24.67;14.98;;;;;;;2.39;76.45;98697.31;4995343;28;20050;-82
2021/01/31 11:22:10;;;;;;;24.48;14.63;;;;;;;2.56;76.46;98691.44;4995745;28;20054;-82
2021/01/31 11:24:37;;;;;;;27.20;14.55;;;;;;;2.74;76.37;98692.41;4994837;28;20053;-82
2021/01/31 11:27:03;;;;;;;26.02;15.07;;;;;;;2.93;76.12;98682.97;4996799;28;20058;-82
2021/01/31 11:29:29;;;;;;;24.08;14.05;;;;;;;3.10;75.48;98688.28;4995457;28;20487;-81
2021/01/31 11:31:55;;;;;;;26.33;15.68;;;;;;;3.28;75.61;98685.81;4996700;28;20054;-82
2021/01/31 11:34:21;;;;;;;24.05;14.43;;;;;;;3.44;75.72;98688.56;4995370;28;20446;-82
2021/01/31 11:36:47;;;;;;;24.90;15.20;;;;;;;3.67;77.62;98688.44;4996839;28;20109;-82
2021/01/31 11:39:16;;;;;;;24.95;15.23;;;;;;;3.99;79.89;98686.09;4995560;28;20054;-83
2021/01/31 11:41:42;;;;;;;21.65;13.65;;;;;;;4.38;79.81;98681.66;4995314;28;20070;-83
2021/01/31 11:44:09;;;;;;;22.08;14.48;;;;;;;4.80;79.71;98675.22;4996279;28;20077;-83
2021/01/31 11:46:36;;;;;;;21.30;14.23;;;;;;;5.27;80.77;98669.41;4995248;28;20046;-82
2021/01/31 11:49:03;;;;;;;19.98;13.80;;;;;;;5.80;81.51;98670.03;4995862;28;20593;-82
2021/01/31 11:51:29;;;;;;;17.40;12.98;;;;;;;6.38;82.03;98657.28;4996143;28;20054;-82
2021/01/31 11:54:04;;;;;;;16.80;12.77;;;;;;;7.08;82.68;98665.44;4994894;28;20109;-81
2021/01/31 11:57:13;;;;;;;15.40;12.30;;;;;;;7.94;76.28;98660.22;4981519;28;20050;-82
2021/01/31 13:04:14;;;;;;;10.20;8.90;;;;;;;14.86;61.57;98539.69;5052356;23;20148;-82